createdAt,value
2018-05-17T00:02:15.098Z,9.27
2018-05-17T00:04:42.578Z,8.35
2018-05-17T00:07:10.046Z,8.40
2018-05-17T00:09:37.521Z,8.90
2018-05-17T00:12:05.013Z,8.50
2018-05-17T00:14:32.495Z,11.12
2018-05-17T00:16:59.967Z,9.27
2018-05-17T00:19:27.162Z,8.20
2018-05-17T00:21:54.645Z,10.02
2018-05-17T00:24:22.130Z,9.98
2018-05-17T00:26:49.610Z,8.85
2018-05-17T00:29:17.118Z,9.20
2018-05-17T00:31:44.595Z,11.12
2018-05-17T00:34:11.801Z,9.77
2018-05-17T00:36:39.019Z,8.80
2018-05-17T00:39:05.958Z,9.73
2018-05-17T00:41:33.443Z,9.95
2018-05-17T00:44:00.917Z,10.27
2018-05-17T00:46:28.401Z,10.40
2018-05-17T00:48:56.010Z,10.80
2018-05-17T00:51:23.496Z,11.88
2018-05-17T00:53:51.004Z,10.65
2018-05-17T00:56:18.496Z,10.35
2018-05-17T00:58:46.008Z,12.95
2018-05-17T01:01:13.245Z,11.80
2018-05-17T01:03:40.726Z,12.35
2018-05-17T01:06:08.220Z,12.60
2018-05-17T01:08:35.710Z,10.40
2018-05-17T01:11:03.197Z,9.65
2018-05-17T01:13:30.673Z,11.18
2018-05-17T01:15:58.358Z,9.60
2018-05-17T01:18:25.858Z,9.05
2018-05-17T01:20:53.345Z,8.82
2018-05-17T01:23:20.820Z,9.70
2018-05-17T01:25:48.313Z,10.05
2018-05-17T01:28:15.778Z,8.80
2018-05-17T01:30:43.272Z,8.77
2018-05-17T01:33:10.770Z,9.25
2018-05-17T01:35:38.238Z,9.90
2018-05-17T01:38:11.203Z,8.98
2018-05-17T01:40:38.695Z,8.35
2018-05-17T01:43:06.188Z,7.80
2018-05-17T01:45:33.676Z,8.25
2018-05-17T01:48:01.166Z,8.38
2018-05-17T01:50:28.637Z,12.68
2018-05-17T01:52:56.128Z,8.55
2018-05-17T01:55:23.609Z,8.55
2018-05-17T01:57:50.805Z,8.70
2018-05-17T02:00:18.297Z,8.32
2018-05-17T02:02:45.766Z,8.05
2018-05-17T02:05:12.963Z,7.77
2018-05-17T02:07:40.437Z,7.45
2018-05-17T02:10:07.925Z,7.00
2018-05-17T02:12:35.402Z,7.57
2018-05-17T02:15:02.613Z,7.83
2018-05-17T02:17:30.070Z,8.88
2018-05-17T02:19:57.546Z,8.02
2018-05-17T02:22:25.029Z,9.07
2018-05-17T02:24:52.503Z,9.85
2018-05-17T02:27:19.699Z,9.63
2018-05-17T02:29:47.169Z,10.80
2018-05-17T02:32:14.676Z,10.90
2018-05-17T02:34:42.163Z,14.57
2018-05-17T02:37:09.382Z,12.70
2018-05-17T02:39:36.867Z,14.38
2018-05-17T02:42:04.361Z,13.13
2018-05-17T02:44:31.614Z,13.95
2018-05-17T02:46:59.122Z,13.30
2018-05-17T02:49:26.618Z,14.93
2018-05-17T02:51:54.103Z,13.02
2018-05-17T02:54:21.606Z,13.13
2018-05-17T02:56:49.075Z,11.77
2018-05-17T02:59:16.571Z,13.95
2018-05-17T03:01:43.802Z,12.53
2018-05-17T03:04:11.280Z,11.88
2018-05-17T03:06:38.773Z,12.27
2018-05-17T03:09:06.267Z,12.90
2018-05-17T03:11:33.764Z,12.55
2018-05-17T03:14:01.255Z,13.35
2018-05-17T03:16:28.759Z,15.13
2018-05-17T03:18:56.243Z,14.25
2018-05-17T03:21:23.738Z,14.57
2018-05-17T03:23:51.231Z,13.65
2018-05-17T03:26:18.440Z,14.13
2018-05-17T03:28:45.933Z,13.25
2018-05-17T03:31:13.410Z,13.80
2018-05-17T03:33:40.921Z,14.98
2018-05-17T03:36:08.394Z,13.02
2018-05-17T03:38:35.912Z,13.30
2018-05-17T03:41:03.459Z,14.25
2018-05-17T03:43:30.954Z,15.23
2018-05-17T03:45:58.446Z,14.05
2018-05-17T03:48:25.946Z,13.05
2018-05-17T03:50:53.430Z,13.82
2018-05-17T03:53:20.935Z,15.25
2018-05-17T03:55:48.431Z,12.55
2018-05-17T03:58:15.916Z,15.52
2018-05-17T04:00:49.127Z,12.27
2018-05-17T04:03:22.128Z,12.37
2018-05-17T04:05:55.287Z,12.77
2018-05-17T04:08:22.774Z,13.18
2018-05-17T04:10:50.286Z,13.32
2018-05-17T04:13:17.765Z,14.20
2018-05-17T04:15:45.255Z,13.77
2018-05-17T04:18:12.737Z,10.13
2018-05-17T04:20:40.228Z,10.13
2018-05-17T04:23:07.718Z,10.82
2018-05-17T04:25:35.213Z,11.05
2018-05-17T04:28:02.686Z,8.43
2018-05-17T04:30:30.157Z,11.35
2018-05-17T04:32:57.640Z,8.77
2018-05-17T04:35:25.111Z,9.05
2018-05-17T04:37:52.607Z,8.57
2018-05-17T04:40:20.083Z,8.75
2018-05-17T04:42:47.576Z,7.47
2018-05-17T04:45:15.050Z,8.98
2018-05-17T04:47:42.544Z,6.90
2018-05-17T04:50:13.414Z,10.25
2018-05-17T04:52:40.912Z,5.60
2018-05-17T04:55:08.398Z,6.12
2018-05-17T04:57:35.874Z,5.82
2018-05-17T05:00:03.351Z,5.20
2018-05-17T05:02:30.847Z,7.40
2018-05-17T05:04:58.318Z,4.85
2018-05-17T05:07:25.817Z,4.28
2018-05-17T05:09:53.292Z,4.57
2018-05-17T05:12:20.784Z,5.28
2018-05-17T05:14:48.272Z,5.15
2018-05-17T05:17:15.766Z,4.25
2018-05-17T05:19:43.232Z,6.37
2018-05-17T05:22:10.706Z,4.10
2018-05-17T05:24:37.903Z,4.17
2018-05-17T05:27:05.382Z,4.78
2018-05-17T05:29:32.882Z,4.25
2018-05-17T05:32:00.423Z,4.95
2018-05-17T05:34:27.667Z,3.90
2018-05-17T05:36:54.877Z,6.40
2018-05-17T05:39:22.071Z,3.13
2018-05-17T05:41:49.273Z,4.40
2018-05-17T05:44:16.461Z,3.10
2018-05-17T05:46:43.696Z,2.90
2018-05-17T05:49:10.948Z,2.80
2018-05-17T05:51:38.598Z,2.70
2018-05-17T05:54:05.801Z,2.80
2018-05-17T05:56:32.982Z,3.07
2018-05-17T05:59:00.257Z,3.17
2018-05-17T06:01:27.489Z,3.10
2018-05-17T06:03:54.979Z,2.37
2018-05-17T06:06:22.478Z,3.50
2018-05-17T06:08:49.947Z,2.37
2018-05-17T06:11:17.427Z,2.40
2018-05-17T06:13:44.971Z,3.75
2018-05-17T06:16:12.449Z,2.40
2018-05-17T06:18:39.919Z,2.05
2018-05-17T06:21:07.390Z,2.50
2018-05-17T06:23:34.872Z,3.10
2018-05-17T06:26:02.345Z,2.15
2018-05-17T06:28:29.826Z,1.83
2018-05-17T06:30:57.035Z,1.83
2018-05-17T06:33:24.547Z,4.07
2018-05-17T06:35:51.737Z,2.00
2018-05-17T06:38:18.933Z,1.83
2018-05-17T06:40:46.122Z,3.20
2018-05-17T06:43:13.405Z,3.13
2018-05-17T06:45:40.595Z,1.77
2018-05-17T06:48:07.791Z,1.80
2018-05-17T06:50:34.982Z,1.60
2018-05-17T06:53:02.234Z,3.47
2018-05-17T06:55:29.414Z,1.70
2018-05-17T06:57:56.350Z,1.90
2018-05-17T07:00:23.571Z,2.60
2018-05-17T07:02:50.792Z,2.00
2018-05-17T07:05:18.051Z,2.23
2018-05-17T07:07:45.243Z,1.80
2018-05-17T07:10:12.466Z,1.93
2018-05-17T07:12:39.663Z,2.27
2018-05-17T07:15:06.859Z,2.67
2018-05-17T07:17:34.068Z,4.10
2018-05-17T07:20:01.257Z,2.30
2018-05-17T07:22:28.476Z,1.73
2018-05-17T07:24:55.664Z,1.97
2018-05-17T07:27:22.905Z,1.90
2018-05-17T07:29:50.120Z,1.83
2018-05-17T07:32:17.483Z,1.80
2018-05-17T07:34:44.684Z,1.50
2018-05-17T07:37:11.890Z,2.07
2018-05-17T07:39:39.077Z,2.07
2018-05-17T07:42:06.275Z,2.63
2018-05-17T07:44:33.473Z,3.63
2018-05-17T07:47:00.667Z,2.20
2018-05-17T07:49:27.869Z,2.07
2018-05-17T07:51:55.102Z,3.03
2018-05-17T07:54:22.280Z,2.27
2018-05-17T07:56:49.468Z,2.40
2018-05-17T07:59:16.676Z,2.63
2018-05-17T08:01:43.948Z,6.30
2018-05-17T08:04:11.289Z,2.73
2018-05-17T08:06:38.473Z,2.13
2018-05-17T08:09:05.423Z,2.47
2018-05-17T08:11:32.614Z,2.40
2018-05-17T08:13:59.800Z,3.73
2018-05-17T08:16:27.002Z,2.93
2018-05-17T08:18:54.427Z,2.43
2018-05-17T08:21:21.635Z,9.53
2018-05-17T08:23:48.888Z,3.00
2018-05-17T08:26:16.089Z,2.30
2018-05-17T08:28:43.313Z,5.30
2018-05-17T08:31:10.532Z,4.33
2018-05-17T08:33:37.743Z,3.20
2018-05-17T08:36:04.995Z,3.80
2018-05-17T08:38:32.351Z,2.80
2018-05-17T08:40:59.545Z,2.80
2018-05-17T08:43:26.739Z,3.00
2018-05-17T08:45:53.946Z,3.20
2018-05-17T08:48:21.151Z,2.73
2018-05-17T08:50:48.338Z,2.83
2018-05-17T08:53:15.559Z,9.20
2018-05-17T08:55:42.792Z,3.10
2018-05-17T08:58:10.002Z,3.00
2018-05-17T09:00:37.213Z,7.03
2018-05-17T09:03:04.401Z,2.33
2018-05-17T09:05:31.606Z,2.63
2018-05-17T09:07:58.809Z,2.97
2018-05-17T09:10:26.045Z,3.00
2018-05-17T09:12:53.229Z,3.30
2018-05-17T09:15:20.426Z,2.77
2018-05-17T09:17:47.623Z,2.90
2018-05-17T09:20:14.830Z,4.93
2018-05-17T09:22:42.217Z,2.50
2018-05-17T09:25:09.422Z,2.40
2018-05-17T09:27:36.610Z,2.57
2018-05-17T09:30:03.803Z,2.70
2018-05-17T09:32:31.001Z,3.43
2018-05-17T09:34:58.206Z,4.17
2018-05-17T09:37:25.406Z,2.73
2018-05-17T09:39:52.615Z,2.77
2018-05-17T09:42:19.810Z,3.30
2018-05-17T09:44:47.017Z,3.30
2018-05-17T09:47:14.211Z,3.40
2018-05-17T09:49:41.397Z,3.07
2018-05-17T09:52:08.581Z,2.93
2018-05-17T09:54:35.779Z,3.10
2018-05-17T09:57:02.996Z,3.23
2018-05-17T09:59:30.358Z,3.50
2018-05-17T10:01:57.561Z,2.53
2018-05-17T10:04:24.764Z,2.80
2018-05-17T10:06:51.968Z,2.63
2018-05-17T10:09:19.170Z,2.70
2018-05-17T10:11:46.348Z,2.73
2018-05-17T10:14:13.562Z,3.20
2018-05-17T10:16:40.754Z,2.90
2018-05-17T10:19:07.957Z,2.27
2018-05-17T10:21:35.153Z,3.57
2018-05-17T10:24:02.348Z,2.93
2018-05-17T10:26:29.554Z,3.03
2018-05-17T10:28:56.833Z,2.90
2018-05-17T10:31:24.014Z,2.90
2018-05-17T10:33:51.219Z,3.20
2018-05-17T10:36:18.418Z,3.17
2018-05-17T10:38:46.499Z,3.10
2018-05-17T10:41:13.725Z,29.70
2018-05-17T10:43:40.905Z,12.93
2018-05-17T10:46:08.101Z,9.03
2018-05-17T10:48:35.324Z,7.03
2018-05-17T10:51:02.515Z,8.63
2018-05-17T10:53:29.705Z,10.93
2018-05-17T10:55:56.921Z,7.07
2018-05-17T10:58:24.107Z,4.17
2018-05-17T11:00:51.314Z,2.80
2018-05-17T11:03:18.503Z,4.10
2018-05-17T11:05:45.711Z,3.97
2018-05-17T11:08:13.002Z,3.97
2018-05-17T11:10:40.215Z,4.63
2018-05-17T11:13:07.394Z,7.43
2018-05-17T11:15:34.573Z,2.93
2018-05-17T11:18:01.764Z,3.50
2018-05-17T11:20:28.960Z,3.03
2018-05-17T11:22:56.150Z,2.70
2018-05-17T11:25:23.364Z,3.10
2018-05-17T11:27:50.593Z,3.57
2018-05-17T11:30:17.802Z,2.80
2018-05-17T11:32:44.988Z,8.30
2018-05-17T11:35:12.197Z,2.87
2018-05-17T11:37:39.384Z,2.70
2018-05-17T11:40:06.598Z,2.67
2018-05-17T11:42:33.785Z,2.10
2018-05-17T11:45:01.003Z,2.80
2018-05-17T11:47:28.206Z,2.90
2018-05-17T11:49:55.402Z,9.03
2018-05-17T11:52:22.671Z,5.07
2018-05-17T11:54:49.858Z,2.73
2018-05-17T11:57:17.922Z,2.07
2018-05-17T11:59:45.117Z,2.80
2018-05-17T12:02:12.311Z,3.17
2018-05-17T12:04:39.501Z,2.47
2018-05-17T12:07:06.717Z,3.03
2018-05-17T12:09:33.924Z,2.83
2018-05-17T12:12:01.126Z,3.40
2018-05-17T12:14:28.384Z,3.70
2018-05-17T12:16:55.584Z,4.30
2018-05-17T12:19:22.783Z,5.77
2018-05-17T12:21:49.964Z,3.00
2018-05-17T12:24:17.158Z,4.63
2018-05-17T12:26:44.349Z,3.73
2018-05-17T12:29:11.544Z,3.33
2018-05-17T12:31:38.832Z,4.17
2018-05-17T12:34:06.151Z,3.00
2018-05-17T12:36:33.364Z,5.30
2018-05-17T12:39:00.566Z,4.73
2018-05-17T12:41:27.772Z,4.33
2018-05-17T12:43:54.967Z,4.20
2018-05-17T12:46:22.167Z,3.90
2018-05-17T12:48:49.354Z,6.57
2018-05-17T12:51:16.575Z,3.60
2018-05-17T12:53:43.775Z,4.10
2018-05-17T12:56:10.956Z,3.90
2018-05-17T12:58:38.275Z,4.03
2018-05-17T13:01:05.596Z,9.17
2018-05-17T13:03:32.806Z,3.63
2018-05-17T13:06:00.001Z,3.30
2018-05-17T13:08:27.199Z,4.83
2018-05-17T13:10:54.416Z,3.70
2018-05-17T13:13:21.609Z,3.80
2018-05-17T13:15:48.837Z,4.03
2018-05-17T13:18:16.037Z,3.97
2018-05-17T13:20:43.240Z,4.27
2018-05-17T13:23:10.443Z,4.07
2018-05-17T13:25:37.642Z,4.70
2018-05-17T13:28:04.606Z,7.43
2018-05-17T13:30:31.809Z,4.03
2018-05-17T13:32:59.076Z,3.00
2018-05-17T13:35:26.263Z,3.93
2018-05-17T13:37:53.486Z,4.40
2018-05-17T13:40:20.670Z,3.33
2018-05-17T13:42:47.863Z,3.67
2018-05-17T13:45:15.042Z,4.90
2018-05-17T13:47:42.382Z,8.17
2018-05-17T13:50:09.710Z,5.43
2018-05-17T13:52:36.896Z,3.77
2018-05-17T13:55:04.100Z,2.70
2018-05-17T13:57:31.278Z,1.60
2018-05-17T13:59:58.482Z,1.70
2018-05-17T14:02:25.738Z,1.50
2018-05-17T14:04:53.080Z,1.50
2018-05-17T14:07:20.295Z,1.10
2018-05-17T14:09:47.563Z,1.70
2018-05-17T14:12:14.901Z,2.27
2018-05-17T14:14:42.098Z,1.50
2018-05-17T14:17:09.338Z,7.03
2018-05-17T14:19:36.549Z,1.60
2018-05-17T14:22:03.754Z,1.63
2018-05-17T14:24:30.973Z,2.50
2018-05-17T14:26:58.163Z,1.83
2018-05-17T14:29:25.372Z,1.40
2018-05-17T14:31:52.560Z,2.33
2018-05-17T14:34:19.779Z,3.90
2018-05-17T14:36:46.955Z,2.30
2018-05-17T14:39:14.158Z,2.37
2018-05-17T14:41:41.344Z,2.43
2018-05-17T14:44:08.567Z,3.40
2018-05-17T14:46:35.774Z,2.50
2018-05-17T14:49:02.977Z,4.10
2018-05-17T14:51:30.189Z,2.47
2018-05-17T14:53:57.384Z,2.83
2018-05-17T14:56:24.569Z,3.27
2018-05-17T14:58:51.762Z,5.20
2018-05-17T15:01:18.981Z,8.97
2018-05-17T15:03:46.367Z,3.90
2018-05-17T15:06:13.741Z,3.27
2018-05-17T15:08:40.966Z,3.20
2018-05-17T15:11:08.419Z,4.10
2018-05-17T15:13:35.726Z,7.30
2018-05-17T15:16:02.930Z,2.60
2018-05-17T15:18:30.123Z,5.77
2018-05-17T15:20:57.325Z,3.50
2018-05-17T15:23:24.519Z,3.27
2018-05-17T15:25:51.805Z,4.07
2018-05-17T15:28:19.148Z,4.00
2018-05-17T15:30:46.343Z,3.50
2018-05-17T15:33:13.584Z,5.80
2018-05-17T15:35:41.007Z,6.60
2018-05-17T15:38:08.231Z,5.10
2018-05-17T15:40:35.451Z,4.80
2018-05-17T15:43:02.658Z,4.70
2018-05-17T15:45:29.842Z,5.10
2018-05-17T15:47:57.037Z,5.23
2018-05-17T15:50:24.254Z,10.03
2018-05-17T15:52:51.441Z,6.33
2018-05-17T15:55:18.634Z,5.70
2018-05-17T15:57:45.817Z,5.57
2018-05-17T16:00:13.039Z,7.53
2018-05-17T16:02:40.218Z,6.30
2018-05-17T16:05:07.417Z,5.87
2018-05-17T16:07:34.635Z,6.40
2018-05-17T16:10:01.843Z,6.17
2018-05-17T16:12:29.063Z,6.50
2018-05-17T16:14:56.316Z,6.30
2018-05-17T16:17:23.673Z,6.20
2018-05-17T16:19:50.871Z,6.23
2018-05-17T16:22:18.094Z,6.33
2018-05-17T16:24:45.288Z,6.13
2018-05-17T16:27:12.529Z,6.80
2018-05-17T16:29:39.931Z,7.40
2018-05-17T16:32:07.155Z,10.70
2018-05-17T16:34:34.453Z,8.37
2018-05-17T16:37:01.633Z,6.10
2018-05-17T16:39:28.848Z,6.73
2018-05-17T16:41:56.057Z,6.27
2018-05-17T16:44:23.273Z,6.00
2018-05-17T16:46:50.483Z,6.50
2018-05-17T16:49:17.700Z,7.77
2018-05-17T16:51:45.096Z,7.27
2018-05-17T16:54:12.420Z,6.60
2018-05-17T16:56:39.717Z,7.97
2018-05-17T16:59:06.922Z,8.60
2018-05-17T17:01:34.110Z,8.70
2018-05-17T17:04:01.328Z,11.03
2018-05-17T17:06:28.525Z,8.17
2018-05-17T17:08:55.722Z,13.43
2018-05-17T17:11:22.966Z,10.73
2018-05-17T17:13:50.347Z,13.70
2018-05-17T17:16:17.580Z,11.97
2018-05-17T17:18:44.783Z,10.97
2018-05-17T17:21:12.015Z,14.07
2018-05-17T17:23:39.357Z,15.37
2018-05-17T17:26:06.566Z,14.57
2018-05-17T17:28:33.783Z,13.53
2018-05-17T17:31:01.069Z,14.80
2018-05-17T17:33:28.441Z,15.90
2018-05-17T17:35:55.652Z,15.63
2018-05-17T17:38:22.868Z,14.27
2018-05-17T17:40:50.092Z,16.33
2018-05-17T17:43:17.299Z,21.83
2018-05-17T17:45:44.582Z,16.13
2018-05-17T17:48:11.779Z,21.63
2018-05-17T17:50:38.987Z,14.63
2018-05-17T17:53:06.193Z,19.03
2018-05-17T17:55:33.403Z,14.00
2018-05-17T17:58:00.602Z,16.03
2018-05-17T18:00:27.822Z,13.17
2018-05-17T18:02:54.892Z,13.20
2018-05-17T18:05:22.130Z,16.43
2018-05-17T18:07:49.503Z,19.00
2018-05-17T18:10:16.728Z,16.73
2018-05-17T18:12:43.973Z,17.37
2018-05-17T18:15:11.182Z,19.70
2018-05-17T18:17:38.422Z,13.47
2018-05-17T18:20:05.630Z,17.87
2018-05-17T18:22:32.843Z,14.83
2018-05-17T18:25:00.060Z,13.63
2018-05-17T18:27:27.261Z,20.00
2018-05-17T18:29:54.541Z,19.33
2018-05-17T18:32:21.792Z,18.37
2018-05-17T18:34:49.040Z,20.33
2018-05-17T18:37:16.263Z,17.27
2018-05-17T18:39:43.529Z,23.23
2018-05-17T18:42:10.756Z,22.00
2018-05-17T18:44:37.963Z,26.23
2018-05-17T18:47:05.189Z,22.20
2018-05-17T18:49:32.395Z,26.73
2018-05-17T18:51:59.609Z,28.23
2018-05-17T18:54:26.864Z,28.67
2018-05-17T18:56:54.423Z,24.00
2018-05-17T18:59:21.662Z,29.60
2018-05-17T19:01:48.917Z,22.10
2018-05-17T19:04:16.179Z,33.53
2018-05-17T19:06:43.404Z,29.97
2018-05-17T19:09:10.702Z,30.00
2018-05-17T19:11:37.968Z,23.30
2018-05-17T19:14:05.430Z,26.60
2018-05-17T19:16:32.938Z,31.60
2018-05-17T19:19:00.260Z,26.77
2018-05-17T19:21:27.568Z,28.97
2018-05-17T19:23:54.900Z,34.53
2018-05-17T19:26:22.218Z,30.47
2018-05-17T19:28:50.491Z,30.23
2018-05-17T19:31:18.071Z,29.47
2018-05-17T19:33:45.577Z,28.13
2018-05-17T19:36:12.999Z,32.27
2018-05-17T19:38:40.364Z,29.10
2018-05-17T19:41:07.653Z,29.83
2018-05-17T19:43:34.940Z,33.53
2018-05-17T19:46:02.225Z,34.37
2018-05-17T19:48:29.512Z,33.27
2018-05-17T19:50:58.496Z,32.50
2018-05-17T19:53:25.713Z,31.97
2018-05-17T19:55:53.028Z,28.90
2018-05-17T19:58:20.352Z,40.90
2018-05-17T20:00:47.585Z,32.33
2018-05-17T20:03:14.969Z,31.00
2018-05-17T20:05:42.265Z,32.03
2018-05-17T20:08:09.544Z,31.70
2018-05-17T20:10:36.833Z,30.50
2018-05-17T20:13:04.106Z,28.20
2018-05-17T20:15:31.366Z,30.57
2018-05-17T20:17:58.598Z,36.17
2018-05-17T20:20:25.856Z,35.83
2018-05-17T20:22:53.065Z,34.37
2018-05-17T20:25:20.346Z,31.37
2018-05-17T20:27:47.590Z,31.67
2018-05-17T20:30:14.914Z,36.43
2018-05-17T20:32:42.144Z,35.83
2018-05-17T20:35:09.412Z,35.03
2018-05-17T20:37:36.634Z,35.97
2018-05-17T20:40:03.842Z,33.97
2018-05-17T20:42:31.076Z,32.47
2018-05-17T20:44:58.281Z,35.30
2018-05-17T20:47:25.606Z,44.67
2018-05-17T20:49:52.825Z,35.60
2018-05-17T20:52:20.050Z,38.97
2018-05-17T20:54:47.249Z,31.60
2018-05-17T20:57:14.442Z,36.83
2018-05-17T20:59:41.666Z,34.33
2018-05-17T21:02:08.859Z,41.57
2018-05-17T21:04:36.070Z,39.10
2018-05-17T21:07:03.281Z,36.60
2018-05-17T21:09:30.507Z,38.50
2018-05-17T21:11:57.722Z,40.40
2018-05-17T21:14:24.928Z,35.73
2018-05-17T21:16:52.168Z,38.30
2018-05-17T21:19:19.373Z,36.40
2018-05-17T21:21:46.593Z,39.83
2018-05-17T21:24:13.795Z,39.40
2018-05-17T21:26:41.024Z,42.30
2018-05-17T21:29:08.228Z,40.37
2018-05-17T21:31:35.439Z,36.47
2018-05-17T21:34:02.692Z,46.00
2018-05-17T21:36:30.148Z,42.57
2018-05-17T21:38:57.395Z,36.13
2018-05-17T21:41:24.582Z,42.03
2018-05-17T21:43:51.859Z,36.93
2018-05-17T21:46:19.074Z,31.80
2018-05-17T21:48:46.304Z,34.70
2018-05-17T21:51:13.530Z,38.33
2018-05-17T21:53:40.736Z,31.30
2018-05-17T21:56:07.965Z,33.70
2018-05-17T21:58:35.513Z,37.17
2018-05-17T22:01:03.000Z,38.75
2018-05-17T22:03:30.226Z,42.73
2018-05-17T22:05:57.714Z,37.90
2018-05-17T22:08:24.674Z,39.87
2018-05-17T22:10:51.874Z,40.33
2018-05-17T22:13:19.094Z,39.37
2018-05-17T22:15:46.297Z,41.33
2018-05-17T22:18:13.806Z,39.72
2018-05-17T22:20:41.014Z,39.50
2018-05-17T22:23:08.202Z,38.57
2018-05-17T22:25:35.417Z,39.97
2018-05-17T22:28:02.840Z,34.00
2018-05-17T22:30:30.030Z,35.40
2018-05-17T22:32:57.243Z,38.07
2018-05-17T22:35:24.518Z,41.43
2018-05-17T22:37:51.714Z,37.47
2018-05-17T22:40:18.922Z,34.60
2018-05-17T22:42:46.143Z,37.70
2018-05-17T22:45:13.356Z,37.00
2018-05-17T22:47:40.559Z,43.10
2018-05-17T22:50:07.794Z,42.20
2018-05-17T22:52:35.003Z,36.07
2018-05-17T22:55:02.258Z,41.13
2018-05-17T22:57:35.111Z,41.80
2018-05-17T23:00:02.306Z,35.60
2018-05-17T23:02:29.509Z,41.07
2018-05-17T23:04:56.701Z,43.13
2018-05-17T23:07:23.919Z,40.73
2018-05-17T23:09:51.107Z,38.87
2018-05-17T23:12:18.321Z,48.70
2018-05-17T23:14:45.538Z,39.30
2018-05-17T23:17:12.750Z,31.37
2018-05-17T23:19:39.973Z,36.90
2018-05-17T23:22:07.206Z,37.10
2018-05-17T23:24:34.434Z,45.43
2018-05-17T23:27:01.939Z,46.90
2018-05-17T23:29:29.147Z,40.40
2018-05-17T23:31:56.356Z,46.63
2018-05-17T23:34:23.855Z,41.15
2018-05-17T23:36:51.072Z,42.70
2018-05-17T23:39:18.566Z,40.40
2018-05-17T23:41:45.807Z,38.30
2018-05-17T23:44:13.300Z,39.60
2018-05-17T23:46:40.513Z,41.70
2018-05-17T23:49:08.010Z,50.20
2018-05-17T23:51:35.190Z,41.93
2018-05-17T23:54:02.695Z,42.90
2018-05-17T23:56:29.885Z,46.33
2018-05-17T23:58:57.388Z,45.25
